Time;durP1;ratioP1;P1;durP2;ratioP2;P2;SDS_P1;SDS_P2;PMS_P1;PMS_P2;Temp;Humidity;BMP_temperature;BMP_pressure;BME280_temperature;BME280_humidity;BME280_pressure;Samples;Min_cycle;Max_cycle;Signal;HPM_P1;HPM_P2
2023/01/21 00:01:09;;;;;;;;;9.00;9.00;;;;;8.61;100.00;101611.72;5101292;27;45405;-80
2023/01/21 00:03:34;;;;;;;;;11.00;10.00;;;;;8.64;100.00;101617.56;5101140;27;45475;-81
2023/01/21 00:06:00;;;;;;;;;10.00;9.00;;;;;8.64;100.00;101612.28;5101498;27;45374;-81
2023/01/21 00:08:26;;;;;;;;;6.00;6.00;;;;;8.57;100.00;101612.00;5101502;27;45451;-82
2023/01/21 00:10:51;;;;;;;;;8.00;7.33;;;;;8.50;100.00;101608.19;5101220;27;46033;-82
2023/01/21 00:13:17;;;;;;;;;7.33;6.00;;;;;8.53;100.00;101612.41;5101341;27;45258;-81
2023/01/21 00:15:42;;;;;;;;;6.67;6.67;;;;;8.50;100.00;101616.13;5101389;27;45466;-82
2023/01/21 00:18:08;;;;;;;;;5.00;5.00;;;;;8.51;100.00;101620.47;5082685;27;46395;-81
2023/01/21 00:20:33;;;;;;;;;7.00;4.67;;;;;8.44;100.00;101622.84;5082886;27;46647;-82
2023/01/21 00:22:58;;;;;;;;;4.67;4.67;;;;;8.45;100.00;101618.38;5101486;27;45294;-81
2023/01/21 00:25:24;;;;;;;;;6.33;6.33;;;;;8.36;100.00;101613.91;5082608;27;45462;-81
2023/01/21 00:27:50;;;;;;;;;8.00;8.00;;;;;8.38;100.00;101630.50;5101252;27;45393;-80
2023/01/21 00:30:15;;;;;;;;;7.33;7.33;;;;;8.42;100.00;101631.91;5101337;27;46584;-81
2023/01/21 00:32:41;;;;;;;;;5.00;5.00;;;;;8.44;100.00;101629.97;5099784;27;45388;-81
2023/01/21 00:35:06;;;;;;;;;8.67;7.00;;;;;8.45;100.00;101635.09;5101130;27;45336;-78
2023/01/21 00:37:32;;;;;;;;;3.67;3.67;;;;;8.42;100.00;101635.41;5100908;27;45662;-79
2023/01/21 00:39:57;;;;;;;;;4.00;4.00;;;;;8.44;100.00;101643.22;5100867;27;46272;-81
2023/01/21 00:42:22;;;;;;;;;3.00;3.00;;;;;8.43;100.00;101629.13;5082908;27;45351;-83
2023/01/21 00:44:48;;;;;;;;;7.00;5.00;;;;;8.49;100.00;101646.28;5100834;27;45422;-80
2023/01/21 00:47:13;;;;;;;;;4.00;4.00;;;;;8.49;100.00;101633.03;5100504;27;45469;-79
2023/01/21 00:49:38;;;;;;;;;6.67;4.33;;;;;8.43;100.00;101630.91;5100328;27;46369;-80
2023/01/21 00:52:04;;;;;;;;;4.33;4.33;;;;;8.43;100.00;101644.16;5100751;27;45294;-79
2023/01/21 00:54:31;;;;;;;;;6.33;5.67;;;;;8.43;100.00;101647.66;5100705;27;45307;-80
2023/01/21 00:56:59;;;;;;;;;6.00;5.00;;;;;8.42;100.00;101650.44;5100766;27;45421;-82
2023/01/21 00:59:26;;;;;;;;;7.33;5.33;;;;;8.43;100.00;101660.91;5081870;27;47391;-83
2023/01/21 01:01:52;;;;;;;;;4.33;4.33;;;;;8.39;100.00;101650.72;5100473;27;45395;-82
2023/01/21 01:04:18;;;;;;;;;7.33;7.33;;;;;8.41;100.00;101656.72;5100494;27;45389;-81
2023/01/21 01:06:44;;;;;;;;;5.00;5.00;;;;;8.39;100.00;101654.22;5100453;27;45397;-82
2023/01/21 01:09:11;;;;;;;;;7.33;7.33;;;;;8.46;100.00;101665.09;5081326;27;47518;-82
2023/01/21 01:11:37;;;;;;;;;4.33;4.33;;;;;8.45;100.00;101651.00;5100740;27;45389;-82
2023/01/21 01:14:02;;;;;;;;;9.00;5.00;;;;;8.43;100.00;101654.75;5099589;27;45429;-81
2023/01/21 01:16:28;;;;;;;;;7.33;6.00;;;;;8.46;100.00;101654.50;5081988;27;46088;-82
2023/01/21 01:18:54;;;;;;;;;7.67;7.00;;;;;8.44;100.00;101653.81;5081705;27;48158;-84
2023/01/21 01:21:20;;;;;;;;;12.33;9.33;;;;;8.48;100.00;101664.94;5100479;27;45557;-82
2023/01/21 01:23:47;;;;;;;;;9.33;9.00;;;;;8.52;100.00;101674.28;5099993;27;45332;-81
2023/01/21 01:26:15;;;;;;;;;9.00;9.00;;;;;8.40;100.00;101657.69;5099970;27;45377;-81
2023/01/21 01:28:40;;;;;;;;;9.00;8.00;;;;;8.51;100.00;101669.97;5100014;27;46144;-83
2023/01/21 01:31:08;;;;;;;;;10.67;10.67;;;;;8.50;100.00;101674.44;5100199;27;45418;-83
2023/01/21 01:33:34;;;;;;;;;10.00;10.00;;;;;8.48;100.00;101673.75;5100133;27;45369;-80
2023/01/21 01:36:03;;;;;;;;;11.00;9.00;;;;;8.47;100.00;101685.28;5081774;27;46134;-82
2023/01/21 01:38:28;;;;;;;;;11.33;11.33;;;;;8.57;100.00;101685.38;5081154;27;48396;-83
2023/01/21 01:40:54;;;;;;;;;9.67;9.67;;;;;8.55;100.00;101682.84;5099863;27;45293;-83
2023/01/21 01:43:25;;;;;;;;;13.00;13.00;;;;;8.57;100.00;101699.47;5099279;27;45539;-83
2023/01/21 01:45:52;;;;;;;;;10.00;10.00;;;;;8.52;100.00;101696.34;5100079;27;45414;-84
2023/01/21 01:48:30;;;;;;;;;11.00;11.00;;;;;8.57;100.00;101709.22;5099388;27;45399;-82
2023/01/21 01:50:59;;;;;;;;;18.33;14.33;;;;;8.52;100.00;101708.75;5099814;27;45330;-84
2023/01/21 01:53:25;;;;;;;;;14.67;11.00;;;;;8.53;100.00;101718.38;5098767;27;45270;-85
2023/01/21 01:55:52;;;;;;;;;11.00;10.00;;;;;8.47;100.00;101717.09;5099735;27;45340;-86
2023/01/21 01:58:20;;;;;;;;;10.00;10.00;;;;;8.51;100.00;101728.28;5099607;27;46406;-83
2023/01/21 02:00:45;;;;;;;;;15.33;15.33;;;;;8.49;100.00;101735.50;5099449;27;45494;-85
2023/01/21 02:06:13;;;;;;;;;15.00;11.67;;;;;8.37;100.00;101737.44;5051981;28;45474;-84
2023/01/21 02:08:39;;;;;;;;;9.00;9.00;;;;;8.40;100.00;101748.59;5086659;27;46362;-84
2023/01/21 02:11:10;;;;;;;;;11.00;10.00;;;;;8.41;100.00;101749.44;5081108;27;45389;-84
2023/01/21 02:13:35;;;;;;;;;9.67;8.67;;;;;8.39;100.00;101756.69;5099521;27;45452;-85
2023/01/21 02:16:16;;;;;;;;;11.00;11.00;;;;;8.33;100.00;101766.84;5081164;27;46521;-83
2023/01/21 02:18:57;;;;;;;;;8.33;8.00;;;;;8.34;100.00;101778.28;5080800;27;47285;-82
2023/01/21 02:21:35;;;;;;;;;7.00;4.00;;;;;8.28;100.00;101774.34;5099349;27;45316;-83
2023/01/21 02:24:09;;;;;;;;;9.33;8.67;;;;;8.26;100.00;101780.78;5080852;27;45659;-83
2023/01/21 02:27:05;;;;;;;;;8.33;7.67;;;;;8.24;100.00;101778.25;5099366;27;45496;-82
2023/01/21 02:29:56;;;;;;;;;10.00;9.00;;;;;8.19;100.00;101777.78;5099223;27;46199;-82
2023/01/21 02:32:40;;;;;;;;;10.00;9.67;;;;;8.21;100.00;101795.22;5080638;27;45430;-84
2023/01/21 02:35:18;;;;;;;;;11.00;10.00;;;;;8.20;100.00;101793.56;5080770;27;45371;-82
2023/01/21 02:38:16;;;;;;;;;13.33;9.00;;;;;8.14;100.00;101801.22;5099260;27;45354;-83
2023/01/21 02:41:18;;;;;;;;;10.67;10.67;;;;;8.13;100.00;101813.59;5044169;28;46220;-84
2023/01/21 02:43:51;;;;;;;;;10.33;10.00;;;;;8.01;100.00;101812.00;5068929;27;45909;-83
2023/01/21 02:46:23;;;;;;;;;11.67;11.00;;;;;8.03;100.00;101826.78;5098672;27;45578;-82
2023/01/21 02:49:03;;;;;;;;;12.00;12.00;;;;;7.87;100.00;101826.41;5099252;27;45212;-84
2023/01/21 02:51:28;;;;;;;;;9.67;9.00;;;;;7.77;100.00;101826.34;5098704;27;46476;-84
2023/01/21 02:53:54;;;;;;;;;14.00;13.00;;;;;7.70;100.00;101852.47;5099254;27;45386;-83
2023/01/21 02:56:24;;;;;;;;;13.67;11.67;;;;;7.57;100.00;101856.13;5101460;27;45589;-85
2023/01/21 02:59:02;;;;;;;;;16.00;15.67;;;;;7.52;100.00;101865.44;5084216;27;46199;-83
2023/01/21 03:01:57;;;;;;;;;14.00;14.00;;;;;7.41;100.00;101875.09;5102517;27;45375;-83
2023/01/21 03:04:26;;;;;;;;;15.00;13.00;;;;;7.41;100.00;101879.53;5102138;27;45318;-83
2023/01/21 03:07:11;;;;;;;;;20.75;17.25;;;;;7.33;100.00;101882.78;5102410;27;45231;-83
2023/01/21 03:09:36;;;;;;;;;20.25;18.25;;;;;7.28;100.00;101882.34;5085590;27;47326;-82
2023/01/21 03:12:20;;;;;;;;;23.00;21.00;;;;;7.26;100.00;101886.91;5078339;27;46531;-82
2023/01/21 03:17:51;;;;;;;;;20.75;19.75;;;;;7.15;100.00;101885.13;5088789;27;45239;-82
2023/01/21 03:20:27;;;;;;;;;25.75;25.75;;;;;7.02;100.00;101866.75;5102198;27;45230;-82
2023/01/21 03:23:22;;;;;;;;;22.00;19.50;;;;;6.91;100.00;101881.66;5083610;27;48492;-83
2023/01/21 03:25:49;;;;;;;;;22.00;20.00;;;;;6.98;100.00;101897.03;5086295;27;45321;-83
2023/01/21 03:28:21;;;;;;;;;23.75;19.25;;;;;6.98;100.00;101894.41;5083732;27;45410;-83
2023/01/21 03:30:53;;;;;;;;;26.25;22.75;;;;;6.98;100.00;101899.69;5101846;27;45444;-85
2023/01/21 03:33:20;;;;;;;;;22.50;21.00;;;;;6.93;100.00;101902.69;5101613;27;45365;-83
2023/01/21 03:35:49;;;;;;;;;25.75;22.25;;;;;6.89;100.00;101898.63;5083918;27;45252;-84
2023/01/21 03:38:21;;;;;;;;;19.75;16.25;;;;;6.86;100.00;101905.00;5101779;27;45458;-83
2023/01/21 03:40:54;;;;;;;;;21.75;19.75;;;;;6.83;100.00;101910.53;5101926;27;45347;-83
2023/01/21 03:43:20;;;;;;;;;25.25;24.00;;;;;6.78;100.00;101910.03;5101513;27;45419;-82
2023/01/21 03:46:01;;;;;;;;;22.00;20.75;;;;;6.68;100.00;101907.28;5101778;27;45316;-83
2023/01/21 03:48:41;;;;;;;;;25.75;23.50;;;;;6.65;100.00;101915.44;5101698;27;45263;-82
2023/01/21 03:51:36;;;;;;;;;24.50;23.50;;;;;6.58;100.00;101909.78;5083387;27;45329;-83
2023/01/21 03:54:02;;;;;;;;;25.50;23.00;;;;;6.49;100.00;101911.34;5082969;27;47234;-84
2023/01/21 03:56:27;;;;;;;;;24.00;22.50;;;;;6.52;100.00;101923.44;5101399;27;45349;-83
2023/01/21 03:58:53;;;;;;;;;23.75;23.00;;;;;6.47;100.00;101933.56;5101485;27;45354;-83
2023/01/21 04:01:19;;;;;;;;;28.75;24.50;;;;;6.45;100.00;101923.09;5101095;27;45548;-83
2023/01/21 04:03:44;;;;;;;;;23.75;23.25;;;;;6.42;100.00;101931.25;5083065;27;48558;-84
2023/01/21 04:06:19;;;;;;;;;25.50;23.50;;;;;6.40;100.00;101926.09;5082759;27;45241;-86
2023/01/21 04:08:45;;;;;;;;;17.50;13.75;;;;;6.40;100.00;101928.72;5101639;27;45316;-84
2023/01/21 04:11:10;;;;;;;;;23.50;19.25;;;;;6.35;100.00;101925.63;5101433;27;45635;-83
2023/01/21 04:13:36;;;;;;;;;25.00;23.25;;;;;6.34;100.00;101923.91;5101191;27;45750;-83
2023/01/21 04:16:01;;;;;;;;;20.00;19.00;;;;;6.34;100.00;101941.56;5101304;27;45320;-83
2023/01/21 04:18:27;;;;;;;;;17.75;17.25;;;;;6.34;100.00;101949.50;5082811;27;45389;-82
2023/01/21 04:20:52;;;;;;;;;21.50;20.25;;;;;6.29;100.00;101944.56;5082565;27;45807;-84
2023/01/21 04:23:17;;;;;;;;;25.00;21.75;;;;;6.25;100.00;101951.00;5082933;27;47075;-84
2023/01/21 04:25:43;;;;;;;;;24.75;23.50;;;;;6.27;100.00;101957.03;5101113;27;45354;-84
2023/01/21 04:28:08;;;;;;;;;34.00;27.75;;;;;6.19;100.00;101947.88;5101261;27;45341;-84
2023/01/21 04:30:34;;;;;;;;;30.00;27.25;;;;;6.24;100.00;101962.53;5100961;27;45581;-84
2023/01/21 04:32:59;;;;;;;;;31.00;27.50;;;;;6.26;100.00;101963.28;5082782;27;46949;-83
2023/01/21 04:35:26;;;;;;;;;28.75;28.25;;;;;6.23;100.00;101963.50;5101095;27;45409;-84
2023/01/21 04:37:51;;;;;;;;;27.25;25.00;;;;;6.17;100.00;101959.53;5101133;27;45266;-85
2023/01/21 04:40:17;;;;;;;;;25.75;22.00;;;;;6.11;100.00;101957.34;5100717;27;45350;-84
2023/01/21 04:42:42;;;;;;;;;24.50;23.00;;;;;6.05;100.00;101970.03;5100984;27;46233;-83
2023/01/21 04:45:08;;;;;;;;;28.00;24.75;;;;;6.06;100.00;101960.31;5082317;27;45306;-83
2023/01/21 04:47:33;;;;;;;;;24.75;23.25;;;;;5.96;100.00;101962.78;5100698;27;45434;-84
2023/01/21 04:49:59;;;;;;;;;25.25;22.25;;;;;5.92;100.00;101972.72;5082083;27;46611;-83
2023/01/21 04:52:24;;;;;;;;;32.00;26.50;;;;;5.89;100.00;101959.75;5100724;27;46499;-83
2023/01/21 04:54:49;;;;;;;;;23.75;22.00;;;;;5.84;100.00;101975.09;5100646;27;45363;-83
2023/01/21 04:57:14;;;;;;;;;23.25;18.50;;;;;5.83;100.00;101972.56;5082726;27;45651;-83
2023/01/21 04:59:40;;;;;;;;;21.50;15.50;;;;;5.80;100.00;101969.19;5081925;27;46131;-83
2023/01/21 05:02:05;;;;;;;;;19.50;18.25;;;;;5.74;100.00;101976.69;5100548;27;45557;-84
2023/01/21 05:04:31;;;;;;;;;25.50;23.25;;;;;5.72;100.00;101983.88;5082134;27;45497;-84
2023/01/21 05:06:57;;;;;;;;;25.75;22.50;;;;;5.67;100.00;101973.66;5082232;27;45554;-84
2023/01/21 05:09:22;;;;;;;;;21.75;20.25;;;;;5.62;100.00;101974.00;5100112;27;45379;-83
2023/01/21 05:11:48;;;;;;;;;31.00;27.50;;;;;5.55;100.00;101972.75;5100199;27;45666;-83
2023/01/21 05:14:13;;;;;;;;;26.25;23.75;;;;;5.52;100.00;101975.63;5100093;27;45329;-83
2023/01/21 05:16:38;;;;;;;;;25.50;24.00;;;;;5.46;100.00;101981.31;5100366;27;45319;-82
2023/01/21 05:19:04;;;;;;;;;25.00;22.00;;;;;5.41;100.00;101990.41;5099437;27;45390;-82
2023/01/21 05:21:29;;;;;;;;;18.25;18.25;;;;;5.40;100.00;101995.78;5082113;27;46160;-84
2023/01/21 05:23:55;;;;;;;;;27.00;25.75;;;;;5.35;100.00;101987.34;5099893;27;45368;-83
2023/01/21 05:26:20;;;;;;;;;25.75;24.00;;;;;5.30;100.00;101998.25;5100152;27;45439;-83
2023/01/21 05:28:45;;;;;;;;;23.75;21.25;;;;;5.29;100.00;101993.91;5081680;27;45387;-83
2023/01/21 05:31:11;;;;;;;;;25.25;23.25;;;;;5.32;100.00;102009.50;5100023;27;45324;-83
2023/01/21 05:33:36;;;;;;;;;20.50;19.00;;;;;5.26;100.00;102016.06;5100127;27;45430;-83
2023/01/21 05:36:02;;;;;;;;;27.25;26.25;;;;;5.30;100.00;102011.44;5082020;27;45801;-83
2023/01/21 05:38:28;;;;;;;;;29.25;26.75;;;;;5.26;100.00;102008.16;5099776;27;45442;-83
2023/01/21 05:41:00;;;;;;;;;31.00;26.25;;;;;5.21;100.00;102018.16;5099857;27;45397;-83
2023/01/21 05:43:26;;;;;;;;;31.25;29.00;;;;;5.17;100.00;102019.34;5099558;27;45286;-82
2023/01/21 05:45:52;;;;;;;;;37.75;30.25;;;;;5.18;100.00;102024.50;5081623;27;45354;-84
2023/01/21 05:48:18;;;;;;;;;31.00;27.25;;;;;5.14;100.00;102033.56;5099692;27;45489;-82
2023/01/21 05:50:43;;;;;;;;;30.00;27.00;;;;;5.12;100.00;102038.09;5099675;27;45307;-84
2023/01/21 05:53:08;;;;;;;;;29.75;28.75;;;;;5.11;100.00;102041.69;5099783;27;45253;-84
2023/01/21 05:55:36;;;;;;;;;31.00;26.75;;;;;5.09;100.00;102046.22;5099981;27;45364;-84
2023/01/21 05:58:01;;;;;;;;;31.00;25.00;;;;;5.11;100.00;102039.06;5099265;27;45374;-84
2023/01/21 06:00:27;;;;;;;;;29.00;29.00;;;;;5.09;100.00;102035.69;5099504;27;46007;-84
2023/01/21 06:02:52;;;;;;;;;32.25;30.50;;;;;5.04;100.00;102038.66;5099433;27;45365;-85
2023/01/21 06:05:17;;;;;;;;;28.50;28.50;;;;;5.03;100.00;102041.41;5100067;27;45299;-84
2023/01/21 06:07:43;;;;;;;;;31.75;27.00;;;;;5.03;100.00;102055.41;5080953;27;47296;-83
2023/01/21 06:10:09;;;;;;;;;33.00;29.50;;;;;5.01;100.00;102043.28;5081169;27;47268;-86
2023/01/21 06:12:34;;;;;;;;;33.50;26.75;;;;;5.38;100.00;102037.22;5098892;27;45444;-83
2023/01/21 06:14:59;;;;;;;;;35.00;28.00;;;;;5.35;100.00;102048.84;5099672;27;45267;-83
2023/01/21 06:17:25;;;;;;;;;28.25;24.50;;;;;5.34;100.00;102054.22;5080856;27;47254;-85
2023/01/21 06:19:50;;;;;;;;;30.00;28.75;;;;;5.35;100.00;102063.81;5099373;27;45553;-84
2023/01/21 06:22:16;;;;;;;;;33.00;30.50;;;;;5.33;100.00;102056.03;5080939;27;45311;-84
2023/01/21 06:24:42;;;;;;;;;30.75;27.75;;;;;5.20;100.00;102045.47;5099549;27;45182;-83
2023/01/21 06:27:07;;;;;;;;;31.50;29.75;;;;;5.18;100.00;102068.50;5099277;27;45389;-84
2023/01/21 06:29:32;;;;;;;;;30.75;26.00;;;;;5.22;100.00;102067.31;5099070;27;46501;-84
2023/01/21 06:31:58;;;;;;;;;31.00;29.00;;;;;5.23;100.00;102070.78;5102560;27;45283;-84
2023/01/21 06:34:23;;;;;;;;;30.00;29.00;;;;;5.22;100.00;102066.47;5084826;27;45717;-83
2023/01/21 06:36:49;;;;;;;;;32.00;30.00;;;;;5.15;100.00;102074.78;5103011;27;45250;-85
2023/01/21 06:39:14;;;;;;;;;29.25;28.00;;;;;5.18;100.00;102084.31;5084498;27;47085;-84
2023/01/21 06:41:40;;;;;;;;;32.75;27.50;;;;;5.09;100.00;102085.75;5084437;27;46090;-84
2023/01/21 06:44:05;;;;;;;;;36.25;31.50;;;;;5.12;100.00;102092.63;5084576;27;45327;-87
2023/01/21 06:46:31;;;;;;;;;35.50;29.25;;;;;5.19;100.00;102085.97;5102470;27;45368;-84
2023/01/21 06:48:56;;;;;;;;;29.00;27.75;;;;;5.28;100.00;102092.41;5102800;27;46308;-83
2023/01/21 06:51:21;;;;;;;;;35.25;32.75;;;;;5.32;100.00;102096.50;5099936;27;45442;-86
2023/01/21 06:53:47;;;;;;;;;33.75;31.75;;;;;5.33;100.00;102092.94;5093421;27;45381;-86
2023/01/21 06:56:12;;;;;;;;;35.00;30.50;;;;;5.35;100.00;102098.09;5101872;27;45373;-84
2023/01/21 06:58:37;;;;;;;;;40.00;35.25;;;;;5.25;100.00;102100.53;5079707;28;47156;-86
2023/01/21 07:01:03;;;;;;;;;41.75;33.50;;;;;5.31;100.00;102108.03;5098774;27;45324;-85
2023/01/21 07:03:28;;;;;;;;;35.50;30.50;;;;;5.34;100.00;102099.91;5083930;27;45585;-84
2023/01/21 07:05:54;;;;;;;;;36.50;33.75;;;;;5.31;100.00;102113.28;5102130;27;46518;-85
2023/01/21 07:08:20;;;;;;;;;41.50;38.75;;;;;5.32;100.00;102122.88;5102352;27;46554;-84
2023/01/21 07:10:45;;;;;;;;;46.75;41.00;;;;;5.02;100.00;102119.59;5102187;27;45263;-82
2023/01/21 07:13:10;;;;;;;;;40.25;37.75;;;;;4.99;100.00;102130.34;5084205;27;45316;-81
2023/01/21 07:15:36;;;;;;;;;41.50;32.00;;;;;5.13;100.00;102128.56;5102359;27;45411;-82
2023/01/21 07:18:02;;;;;;;;;29.50;27.00;;;;;5.15;100.00;102134.59;5083634;27;47077;-83
2023/01/21 07:20:27;;;;;;;;;39.00;35.00;;;;;5.07;100.00;102132.47;5102110;27;45292;-82
2023/01/21 07:22:52;;;;;;;;;37.50;34.75;;;;;5.02;100.00;102134.56;5102455;27;45129;-81
2023/01/21 07:25:18;;;;;;;;;43.25;37.50;;;;;4.75;100.00;102133.66;5101774;27;45899;-81
2023/01/21 07:27:43;;;;;;;;;41.25;35.75;;;;;4.76;100.00;102148.53;5083712;27;48067;-82
2023/01/21 07:30:17;;;;;;;;;51.75;41.00;;;;;4.73;100.00;102145.25;5101757;27;45329;-82
2023/01/21 07:32:44;;;;;;;;;41.00;38.25;;;;;4.66;100.00;102156.19;5101801;27;45340;-81
2023/01/21 07:35:09;;;;;;;;;35.25;35.25;;;;;4.59;100.00;102147.00;5101676;27;45325;-81
2023/01/21 07:37:35;;;;;;;;;45.75;41.50;;;;;4.64;100.00;102165.97;5083353;27;46973;-81
2023/01/21 07:40:00;;;;;;;;;44.25;37.50;;;;;5.04;100.00;102161.66;5083474;27;45515;-80
2023/01/21 07:42:26;;;;;;;;;47.00;39.75;;;;;4.76;100.00;102168.78;5101499;27;45344;-82
2023/01/21 07:44:51;;;;;;;;;37.00;36.25;;;;;4.60;100.00;102161.84;5101677;27;45337;-85
2023/01/21 07:47:16;;;;;;;;;42.25;37.50;;;;;4.65;100.00;102169.47;5101915;27;46048;-86
2023/01/21 07:49:42;;;;;;;;;47.50;41.25;;;;;4.91;100.00;102178.28;5101979;27;45383;-85
2023/01/21 07:52:07;;;;;;;;;40.75;38.25;;;;;4.95;100.00;102185.97;5102360;27;45475;-86
2023/01/21 07:54:32;;;;;;;;;41.25;38.25;;;;;5.16;100.00;102179.31;5101683;27;45391;-85
2023/01/21 07:56:58;;;;;;;;;42.25;37.50;;;;;5.09;100.00;102185.91;5101631;27;45472;-84
2023/01/21 07:59:23;;;;;;;;;42.00;36.75;;;;;4.65;100.00;102194.03;5083949;27;45773;-84
2023/01/21 08:01:48;;;;;;;;;44.75;41.75;;;;;4.63;100.00;102202.94;5101670;27;45398;-83
2023/01/21 08:04:14;;;;;;;;;39.25;32.00;;;;;4.58;100.00;102197.97;5083008;27;45861;-86
2023/01/21 08:06:42;;;;;;;;;30.25;28.00;;;;;5.01;100.00;102198.75;5083169;27;47178;-86
2023/01/21 08:09:09;;;;;;;;;48.00;41.75;;;;;4.64;100.00;102205.47;5101392;27;45742;-86
2023/01/21 08:11:34;;;;;;;;;50.50;41.00;;;;;4.54;100.00;102199.97;5101607;27;45495;-85
2023/01/21 08:14:00;;;;;;;;;43.00;37.25;;;;;4.57;100.00;102214.72;5082826;27;46056;-85
2023/01/21 08:16:25;;;;;;;;;47.25;40.75;;;;;4.52;100.00;102207.09;5101079;27;45281;-84
2023/01/21 08:18:51;;;;;;;;;40.50;33.50;;;;;4.54;100.00;102220.19;5081438;27;45488;-86
2023/01/21 08:21:17;;;;;;;;;42.00;37.00;;;;;4.55;100.00;102227.16;5101556;27;45246;-85
2023/01/21 08:23:42;;;;;;;;;43.25;36.75;;;;;4.55;100.00;102229.78;5100769;27;45563;-84
2023/01/21 08:26:08;;;;;;;;;45.75;38.00;;;;;4.50;100.00;102216.91;5094053;27;46109;-83
2023/01/21 08:28:33;;;;;;;;;49.50;42.75;;;;;4.57;100.00;102225.25;5092066;27;45306;-84
2023/01/21 08:31:10;;;;;;;;;42.25;40.00;;;;;4.58;100.00;102223.47;5093656;27;45367;-84
2023/01/21 08:33:36;;;;;;;;;49.75;42.25;;;;;4.54;100.00;102223.66;5099935;27;45497;-82
2023/01/21 08:36:04;;;;;;;;;45.25;41.50;;;;;4.57;100.00;102227.88;5082306;27;48006;-83
2023/01/21 08:38:30;;;;;;;;;42.00;37.50;;;;;4.60;100.00;102235.59;5100804;27;45338;-84
2023/01/21 08:40:57;;;;;;;;;42.00;38.25;;;;;4.60;100.00;102234.75;5101097;27;45328;-83
2023/01/21 08:43:23;;;;;;;;;43.00;40.25;;;;;4.78;100.00;102238.00;5100737;27;45329;-83
2023/01/21 08:45:48;;;;;;;;;51.75;42.00;;;;;4.58;100.00;102231.38;5082279;27;47347;-81
2023/01/21 08:48:14;;;;;;;;;49.00;42.25;;;;;4.59;100.00;102246.22;5100987;27;45373;-81
2023/01/21 08:50:39;;;;;;;;;43.75;36.75;;;;;4.60;100.00;102240.00;5101296;27;45365;-83
2023/01/21 08:53:04;;;;;;;;;43.00;38.25;;;;;4.71;100.00;102256.00;5097939;27;45322;-81
2023/01/21 08:55:30;;;;;;;;;47.00;41.25;;;;;4.77;100.00;102275.81;5092267;27;45378;-83
2023/01/21 08:57:57;;;;;;;;;47.25;43.00;;;;;4.78;100.00;102274.88;5094714;27;45312;-82
2023/01/21 09:00:23;;;;;;;;;49.25;42.75;;;;;4.80;100.00;102280.91;5081943;27;46276;-82
2023/01/21 09:02:49;;;;;;;;;49.50;41.00;;;;;4.84;100.00;102285.03;5080985;27;47225;-85
2023/01/21 09:05:14;;;;;;;;;44.50;39.75;;;;;4.85;100.00;102289.34;5100454;27;46479;-83
2023/01/21 09:07:39;;;;;;;;;48.25;41.75;;;;;4.91;100.00;102299.50;5091305;27;45447;-83
2023/01/21 09:10:05;;;;;;;;;57.00;41.50;;;;;4.93;100.00;102292.34;5088703;27;45410;-81
2023/01/21 09:12:31;;;;;;;;;53.75;45.00;;;;;5.05;100.00;102311.78;5081990;27;45479;-83
2023/01/21 09:14:56;;;;;;;;;51.25;41.75;;;;;5.12;100.00;102300.84;5093132;27;46357;-83
2023/01/21 09:17:22;;;;;;;;;45.25;41.00;;;;;5.20;100.00;102303.81;5097785;27;46167;-82
2023/01/21 09:19:48;;;;;;;;;53.50;41.50;;;;;5.35;100.00;102315.16;5081584;27;45477;-86
2023/01/21 09:22:14;;;;;;;;;42.25;38.75;;;;;5.40;100.00;102321.00;5095126;27;45453;-80
2023/01/21 09:24:40;;;;;;;;;42.50;39.50;;;;;5.36;100.00;102324.75;5079302;27;46341;-83
2023/01/21 09:27:07;;;;;;;;;47.00;42.25;;;;;5.46;100.00;102332.91;5099904;27;45393;-83
2023/01/21 09:29:33;;;;;;;;;53.75;43.75;;;;;5.48;100.00;102333.63;5100821;27;45432;-83
2023/01/21 09:31:59;;;;;;;;;53.25;45.50;;;;;5.51;100.00;102322.91;5099875;27;45259;-80
2023/01/21 09:34:25;;;;;;;;;57.00;48.00;;;;;5.51;100.00;102336.09;5100070;27;46168;-81
2023/01/21 09:36:50;;;;;;;;;49.00;41.50;;;;;5.57;100.00;102324.31;5092802;27;45374;-83
2023/01/21 09:39:16;;;;;;;;;51.75;39.75;;;;;5.67;100.00;102343.84;5098054;27;45401;-83
2023/01/21 09:41:53;;;;;;;;;56.75;44.75;;;;;5.67;100.00;102349.13;5100060;27;45445;-81
2023/01/21 09:44:31;;;;;;;;;56.00;44.50;;;;;5.71;100.00;102348.91;5067735;27;48219;-82
2023/01/21 09:47:04;;;;;;;;;49.25;41.25;;;;;5.78;100.00;102358.13;5081248;27;46442;-84
2023/01/21 09:49:38;;;;;;;;;43.50;38.50;;;;;5.86;100.00;102355.78;5099789;27;45360;-82
2023/01/21 09:52:41;;;;;;;;;51.25;39.00;;;;;5.87;100.00;102352.19;5099983;27;45267;-81
2023/01/21 09:55:32;;;;;;;;;46.75;39.25;;;;;5.86;100.00;102353.16;5071503;27;48192;-81
2023/01/21 09:58:20;;;;;;;;;46.50;41.00;;;;;5.80;100.00;102338.59;5067901;27;45671;-81
2023/01/21 10:00:53;;;;;;;;;48.75;42.50;;;;;5.97;100.00;102348.94;5081561;27;45378;-83
2023/01/21 10:03:42;;;;;;;;;48.50;40.75;;;;;6.02;100.00;102358.22;5099439;27;45392;-81
2023/01/21 10:06:26;;;;;;;;;41.25;37.25;;;;;6.00;100.00;102357.50;5081037;27;47350;-80
2023/01/21 10:09:03;;;;;;;;;44.75;39.75;;;;;6.01;100.00;102374.16;5099334;27;45445;-81
2023/01/21 10:11:45;;;;;;;;;49.75;42.75;;;;;6.00;100.00;102365.44;5081350;27;45493;-80
2023/01/21 10:14:38;;;;;;;;;53.25;45.00;;;;;6.10;100.00;102372.75;5098675;27;45342;-84
2023/01/21 10:17:13;;;;;;;;;54.25;41.75;;;;;6.18;100.00;102381.00;5098775;27;46369;-85
2023/01/21 10:20:01;;;;;;;;;48.00;41.00;;;;;6.24;100.00;102375.28;5099145;27;45307;-81
2023/01/21 10:22:27;;;;;;;;;54.50;45.25;;;;;6.31;100.00;102366.00;5099527;27;45393;-81
2023/01/21 10:25:05;;;;;;;;;55.00;43.50;;;;;6.40;100.00;102369.78;5091168;27;45549;-85
2023/01/21 10:27:34;;;;;;;;;46.25;38.75;;;;;6.40;100.00;102355.72;5098982;27;45411;-80
2023/01/21 10:30:19;;;;;;;;;47.50;40.25;;;;;6.31;100.00;102363.34;5081077;27;46036;-80
2023/01/21 10:32:49;;;;;;;;;60.25;42.75;;;;;6.29;100.00;102369.69;5080725;27;45427;-82
2023/01/21 10:35:23;;;;;;;;;48.25;42.25;;;;;6.22;100.00;102374.53;5098960;27;45473;-80
2023/01/21 10:38:08;;;;;;;;;45.25;40.75;;;;;6.15;100.00;102362.72;5099137;27;46880;-83
2023/01/21 10:41:03;;;;;;;;;54.00;42.25;;;;;6.11;100.00;102356.78;5080646;27;45328;-80
2023/01/21 10:43:59;;;;;;;;;46.25;38.75;;;;;6.30;100.00;102379.31;5046494;27;45434;-80
2023/01/21 10:46:46;;;;;;;;;46.25;39.25;;;;;6.38;100.00;102373.50;5098714;27;45481;-81
2023/01/21 10:49:36;;;;;;;;;51.75;43.75;;;;;6.47;100.00;102375.50;5087334;27;45900;-83
2023/01/21 10:52:10;;;;;;;;;51.50;41.25;;;;;6.53;100.00;102382.97;5079842;27;45694;-81
2023/01/21 10:54:47;;;;;;;;;54.75;43.50;;;;;6.57;100.00;102373.91;5098693;27;45354;-81
2023/01/21 10:57:32;;;;;;;;;46.75;39.75;;;;;6.60;100.00;102382.56;5077941;27;46205;-83
2023/01/21 11:00:01;;;;;;;;;43.50;38.75;;;;;6.68;100.00;102381.06;5095334;27;45617;-81
2023/01/21 11:02:30;;;;;;;;;46.25;40.25;;;;;6.73;100.00;102377.28;5080226;27;45271;-86
2023/01/21 11:05:00;;;;;;;;;24.00;23.00;;;;;6.68;100.00;102374.97;5097907;27;45477;-83
2023/01/21 11:07:32;;;;;;;;;45.25;39.00;;;;;6.58;100.00;102382.66;5092446;27;45598;-88
2023/01/21 11:10:01;;;;;;;;;44.75;39.75;;;;;6.38;100.00;102368.22;5094981;27;46359;-86
2023/01/21 11:12:26;;;;;;;;;28.25;25.75;;;;;6.42;100.00;102367.91;5076462;27;46217;-81
2023/01/21 11:15:06;;;;;;;;;47.75;39.75;;;;;6.58;100.00;102395.88;5080222;27;45271;-80
2023/01/21 11:17:35;;;;;;;;;44.00;39.00;;;;;6.59;100.00;102381.75;5100979;27;46412;-87
2023/01/21 11:20:03;;;;;;;;;49.00;40.00;;;;;6.60;100.00;102399.28;5096239;27;45536;-82
2023/01/21 11:22:31;;;;;;;;;47.75;38.50;;;;;6.50;100.00;102393.75;5101949;27;45316;-84
2023/01/21 11:24:58;;;;;;;;;41.25;35.75;;;;;6.50;100.00;102377.09;5102332;27;45598;-85
2023/01/21 11:27:35;;;;;;;;;51.50;40.50;;;;;6.52;100.00;102386.59;5083653;27;46071;-82